createdAt,value
2022-08-05T00:02:07.403Z,101330.78
2022-08-05T00:04:40.439Z,101329.06
2022-08-05T00:07:27.341Z,101337.59
2022-08-05T00:10:06.840Z,101339.53
2022-08-05T00:12:44.294Z,101349.72
2022-08-05T00:15:56.099Z,101352.66
2022-08-05T00:18:22.608Z,101352.91
2022-08-05T00:20:56.126Z,101349.34
2022-08-05T00:23:31.025Z,101352.09
2022-08-05T00:26:20.115Z,101346.00
2022-08-05T00:28:52.823Z,101346.22
2022-08-05T00:31:41.366Z,101352.50
2022-08-05T00:34:56.661Z,101351.88
2022-08-05T00:37:14.300Z,101345.09
2022-08-05T00:39:58.764Z,101337.25
2022-08-05T00:42:36.717Z,101348.22
2022-08-05T00:45:11.599Z,101352.53
2022-08-05T00:47:57.266Z,101367.91
2022-08-05T00:50:37.071Z,101373.34
2022-08-05T00:53:59.796Z,101362.78
2022-08-05T00:56:02.650Z,101365.22
2022-08-05T00:58:36.142Z,101371.25
2022-08-05T01:01:11.032Z,101366.81
2022-08-05T01:03:45.048Z,101370.91
2022-08-05T01:06:22.457Z,101364.22
2022-08-05T01:09:06.286Z,101370.25
2022-08-05T01:11:39.775Z,101357.53
2022-08-05T01:14:32.640Z,101357.53
2022-08-05T01:17:12.167Z,101354.19
2022-08-05T01:20:03.567Z,101351.34
2022-08-05T01:22:47.318Z,101348.03
2022-08-05T01:25:19.764Z,101345.03
2022-08-05T01:28:17.618Z,101349.19
2022-08-05T01:30:57.376Z,101339.84
2022-08-05T01:33:35.968Z,101313.97
2022-08-05T01:36:12.981Z,101305.78
2022-08-05T01:38:49.849Z,101292.91
2022-08-05T01:41:25.551Z,101297.69
2022-08-05T01:43:58.698Z,101297.75
2022-08-05T01:46:42.716Z,101296.41
2022-08-05T01:49:22.866Z,101292.31
2022-08-05T01:52:17.574Z,101271.91
2022-08-05T01:54:54.372Z,101253.72
2022-08-05T01:58:11.867Z,101247.63
2022-08-05T02:00:30.253Z,101243.78
2022-08-05T02:03:31.745Z,101249.31
2022-08-05T02:06:23.971Z,101247.09
2022-08-05T02:08:59.958Z,101252.63
2022-08-05T02:11:52.311Z,101250.47
2022-08-05T02:14:32.787Z,101242.19
2022-08-05T02:18:28.745Z,101217.91
2022-08-05T02:20:26.257Z,101206.28
2022-08-05T02:23:01.900Z,101200.19
2022-08-05T02:25:50.031Z,101196.84
2022-08-05T02:28:31.128Z,101203.97
2022-08-05T02:31:14.612Z,101227.09
2022-08-05T02:34:09.964Z,101214.66
2022-08-05T02:36:53.529Z,101219.59
2022-08-05T02:39:28.408Z,101249.00
2022-08-05T02:42:02.281Z,101329.38
2022-08-05T02:44:36.489Z,101340.31
2022-08-05T02:47:10.271Z,101307.16
2022-08-05T02:49:44.666Z,101302.94
2022-08-05T02:52:30.220Z,101301.91
2022-08-05T02:55:05.071Z,101264.75
2022-08-05T02:58:11.078Z,101258.81
2022-08-05T03:00:34.015Z,101258.34
2022-08-05T03:03:10.252Z,101270.09
2022-08-05T03:06:56.939Z,101265.94
2022-08-05T03:08:36.601Z,101262.59
2022-08-05T03:11:56.350Z,101276.34
2022-08-05T03:14:14.485Z,101268.59
2022-08-05T03:16:47.228Z,101259.28
2022-08-05T03:19:34.032Z,101247.06
2022-08-05T03:22:16.325Z,101267.16
2022-08-05T03:24:52.250Z,101286.44
2022-08-05T03:27:29.637Z,101291.59
2022-08-05T03:30:12.213Z,101295.44
2022-08-05T03:32:44.659Z,101302.59
2022-08-05T03:35:18.047Z,101293.75
2022-08-05T03:37:50.857Z,101302.84
2022-08-05T03:40:31.870Z,101289.34
2022-08-05T03:43:58.405Z,101286.50
2022-08-05T03:45:58.635Z,101291.41
2022-08-05T03:48:35.064Z,101283.03
2022-08-05T03:52:48.835Z,101270.38
2022-08-05T03:55:50.833Z,101264.03
2022-08-05T03:57:16.574Z,101260.44
2022-08-05T03:59:56.110Z,101264.84
2022-08-05T04:02:37.684Z,101267.38
2022-08-05T04:05:12.260Z,101279.22
2022-08-05T04:07:57.403Z,101284.72
2022-08-05T04:10:37.358Z,101286.41
2022-08-05T04:13:10.116Z,101284.22
2022-08-05T04:16:03.221Z,101270.47
2022-08-05T04:18:34.941Z,101278.25
2022-08-05T04:21:07.890Z,101282.06
2022-08-05T04:24:05.874Z,101279.31
2022-08-05T04:26:36.580Z,101279.88
2022-08-05T04:29:08.853Z,101293.06
2022-08-05T04:31:41.487Z,101294.38
2022-08-05T04:34:31.846Z,101302.91
2022-08-05T04:37:06.569Z,101298.94
2022-08-05T04:39:39.125Z,101298.88
2022-08-05T04:42:12.371Z,101298.50
2022-08-05T04:44:45.304Z,101307.03
2022-08-05T04:47:20.029Z,101323.16
2022-08-05T04:50:01.936Z,101322.81
2022-08-05T04:52:43.053Z,101324.94
2022-08-05T04:55:17.193Z,101325.94
2022-08-05T04:58:12.414Z,101343.13
2022-08-05T05:00:45.122Z,101354.84
2022-08-05T05:03:24.786Z,101355.69
2022-08-05T05:06:40.090Z,101354.84
2022-08-05T05:08:52.729Z,101371.09
2022-08-05T05:11:25.105Z,101374.69
2022-08-05T05:14:15.975Z,101383.09
2022-08-05T05:16:48.678Z,101369.69
2022-08-05T05:19:23.670Z,101369.22
2022-08-05T06:10:52.718Z,101396.34
2022-08-05T06:13:25.568Z,101378.25
2022-08-05T06:16:29.448Z,101368.56
2022-08-05T06:18:53.585Z,101372.34
2022-08-05T06:21:36.554Z,101376.38
2022-08-05T06:24:11.372Z,101362.22
2022-08-05T06:26:51.316Z,101367.03
2022-08-05T06:29:49.689Z,101381.97
2022-08-05T06:32:25.091Z,101392.59
2022-08-05T06:35:06.037Z,101382.28
2022-08-05T06:37:55.856Z,101384.41
2022-08-05T06:40:32.374Z,101380.66
2022-08-05T06:43:04.924Z,101368.91
2022-08-05T06:45:45.128Z,101363.19
2022-08-05T06:48:52.639Z,101376.59
2022-08-05T06:51:23.751Z,101378.09
2022-08-05T06:54:02.054Z,101372.75
2022-08-05T06:56:35.152Z,101381.81
2022-08-05T06:59:08.379Z,101381.13
2022-08-05T07:01:42.420Z,101391.50
2022-08-05T07:04:14.689Z,101397.66
2022-08-05T07:06:51.060Z,101385.63
2022-08-05T07:09:24.865Z,101390.66
2022-08-05T07:12:00.397Z,101386.28
2022-08-05T07:14:51.367Z,101394.28
2022-08-05T07:18:00.822Z,101395.66
2022-08-05T07:20:33.076Z,101395.03
2022-08-05T07:23:06.566Z,101390.66
2022-08-05T07:25:55.601Z,101384.53
2022-08-05T07:28:29.082Z,101389.47
2022-08-05T07:31:01.757Z,101384.47
2022-08-05T07:33:37.120Z,101394.34
2022-08-05T07:36:19.889Z,101393.66
2022-08-05T07:38:54.663Z,101391.41
2022-08-05T07:42:14.288Z,101396.34
2022-08-05T07:44:19.736Z,101393.00
2022-08-05T07:46:52.209Z,101380.06
2022-08-05T07:49:25.877Z,101376.47
2022-08-05T07:51:59.375Z,101374.19
2022-08-05T07:54:33.543Z,101383.53
2022-08-05T07:57:22.718Z,101400.25
2022-08-05T08:00:05.475Z,101400.41
2022-08-05T08:03:15.270Z,101408.56
2022-08-05T08:05:39.520Z,101411.84
2022-08-05T08:08:13.257Z,101406.34
2022-08-05T08:10:49.004Z,101395.31
2022-08-05T08:13:21.979Z,101399.97
2022-08-05T08:16:34.490Z,101403.56
2022-08-05T08:18:53.606Z,101402.97
2022-08-05T08:21:26.793Z,101394.63
2022-08-05T08:24:02.938Z,101394.63
2022-08-05T08:26:36.552Z,101397.97
2022-08-05T08:30:03.061Z,101406.25
2022-08-05T08:32:05.507Z,101408.50
2022-08-05T08:34:43.290Z,101398.91
2022-08-05T08:37:18.781Z,101392.88
2022-08-05T08:39:50.819Z,101400.63
2022-08-05T08:42:34.043Z,101402.31
2022-08-05T08:45:25.307Z,101406.75
2022-08-05T08:48:12.330Z,101408.19
2022-08-05T08:51:04.108Z,101411.28
2022-08-05T08:53:46.780Z,101418.81
2022-08-05T08:56:20.960Z,101420.50
2022-08-05T08:58:54.686Z,101429.59
2022-08-05T09:01:26.843Z,101441.97
2022-08-05T09:04:00.343Z,101446.28
2022-08-05T09:06:32.302Z,101437.41
2022-08-05T09:09:08.137Z,101451.19
2022-08-05T09:11:52.711Z,101452.53
2022-08-05T09:14:56.411Z,101449.78
2022-08-05T09:17:41.243Z,101454.97
2022-08-05T09:20:12.442Z,101455.44
2022-08-05T09:23:18.283Z,101460.94
2022-08-05T09:26:06.235Z,101460.13
2022-08-05T09:28:40.717Z,101453.75
2022-08-05T09:31:43.241Z,101453.19
2022-08-05T09:34:09.777Z,101450.44
2022-08-05T09:36:56.369Z,101446.84
2022-08-05T09:39:45.215Z,101447.41
2022-08-05T09:42:24.499Z,101453.53
2022-08-05T09:46:05.080Z,101444.41
2022-08-05T09:47:58.721Z,101445.75
2022-08-05T09:50:44.410Z,101435.56
2022-08-05T09:53:25.846Z,101437.81
2022-08-05T09:56:12.982Z,101439.59
2022-08-05T09:58:56.493Z,101429.72
2022-08-05T10:01:31.778Z,101429.59
2022-08-05T10:04:12.988Z,101429.94
2022-08-05T10:06:59.488Z,101438.78
2022-08-05T10:09:45.291Z,101445.41
2022-08-05T10:12:30.072Z,101456.34
2022-08-05T10:15:16.991Z,101452.53
2022-08-05T10:18:16.885Z,101454.88
2022-08-05T10:20:51.493Z,101468.47
2022-08-05T10:23:55.687Z,101471.47
2022-08-05T10:26:52.322Z,101471.47
2022-08-05T10:29:23.541Z,101473.13
2022-08-05T10:32:52.276Z,101469.78
2022-08-05T10:35:01.061Z,101461.41
2022-08-05T10:37:40.407Z,101471.59
2022-08-05T10:40:28.013Z,101480.94
2022-08-05T10:43:12.403Z,101469.91
2022-08-05T10:45:55.753Z,101480.94
2022-08-05T10:48:52.772Z,101489.63
2022-08-05T10:51:57.542Z,101482.31
2022-08-05T10:55:01.970Z,101477.88
2022-08-05T10:57:35.047Z,101480.06
2022-08-05T11:00:19.731Z,101485.81
2022-08-05T11:03:24.233Z,101509.75
2022-08-05T11:06:15.069Z,101510.84
2022-08-05T11:09:16.740Z,101530.97
2022-08-05T11:11:53.573Z,101525.34
2022-08-05T11:14:57.766Z,101529.91
2022-08-05T11:17:57.318Z,101526.56
2022-08-05T11:20:41.660Z,101536.97
2022-08-05T11:23:25.628Z,101534.22
2022-08-05T11:26:16.124Z,101537.59
2022-08-05T11:29:13.098Z,101535.91
2022-08-05T11:31:58.122Z,101538.66
2022-08-05T11:34:37.601Z,101538.09
2022-08-05T11:38:30.351Z,101537.47
2022-08-05T11:40:03.589Z,101551.75
2022-08-05T11:42:41.273Z,101550.50
2022-08-05T11:45:23.132Z,101553.25
2022-08-05T11:48:09.726Z,101563.22
2022-08-05T11:50:43.873Z,101555.06
2022-08-05T11:53:19.394Z,101557.94
2022-08-05T11:55:56.164Z,101568.22
2022-08-05T11:58:36.100Z,101568.34
2022-08-05T12:01:19.022Z,101573.72
2022-08-05T12:03:56.353Z,101574.31
2022-08-05T12:06:29.482Z,101570.47
2022-08-05T12:09:04.587Z,101578.28
2022-08-05T12:11:40.558Z,101586.16
2022-08-05T12:14:14.142Z,101593.44
2022-08-05T12:16:49.164Z,101587.53
2022-08-05T12:20:26.796Z,101592.09
2022-08-05T12:22:20.264Z,101595.56
2022-08-05T12:24:52.384Z,101593.88
2022-08-05T12:27:33.117Z,101595.56
2022-08-05T12:30:10.502Z,101591.78
2022-08-05T12:32:51.256Z,101595.28
2022-08-05T12:35:24.631Z,101594.53
2022-08-05T12:38:10.179Z,101595.97
2022-08-05T12:40:44.115Z,101581.19
2022-08-05T12:43:21.095Z,101591.25
2022-08-05T12:45:56.606Z,101592.41
2022-08-05T12:48:38.585Z,101598.25
2022-08-05T12:52:11.032Z,101602.47
2022-08-05T12:54:16.824Z,101605.31
2022-08-05T12:56:56.729Z,101591.19
2022-08-05T13:00:08.451Z,101593.13
2022-08-05T13:02:27.256Z,101599.50
2022-08-05T13:05:06.364Z,101595.91
2022-08-05T13:08:00.057Z,101597.28
2022-08-05T13:10:33.228Z,101602.81
2022-08-05T13:13:06.372Z,101582.63
2022-08-05T13:15:50.845Z,101588.41
2022-08-05T13:18:23.978Z,101590.50
2022-08-05T13:20:56.150Z,101592.19
2022-08-05T13:23:28.075Z,101591.72
2022-08-05T13:26:03.544Z,101589.13
2022-08-05T13:28:35.591Z,101589.94
2022-08-05T13:31:16.089Z,101595.63
2022-08-05T13:34:22.451Z,101600.91
2022-08-05T13:36:40.211Z,101596.53
2022-08-05T13:39:24.630Z,101596.22
2022-08-05T13:42:05.994Z,101592.88
2022-08-05T13:44:40.959Z,101585.84
2022-08-05T13:47:35.154Z,101573.28
2022-08-05T13:50:12.409Z,101577.63
2022-08-05T13:52:50.067Z,101581.88
2022-08-05T13:55:41.720Z,101577.88
2022-08-05T13:58:14.134Z,101575.44
2022-08-05T14:01:02.603Z,101583.50
2022-08-05T14:03:34.649Z,101590.28
2022-08-05T14:06:26.160Z,101576.53
2022-08-05T14:08:59.555Z,101584.88
2022-08-05T14:11:31.700Z,101579.78
2022-08-05T14:14:26.054Z,101586.63
2022-08-05T14:17:05.019Z,101586.97
2022-08-05T14:19:55.361Z,101591.63
2022-08-05T14:22:30.335Z,101600.91
2022-08-05T14:25:19.183Z,101597.47
2022-08-05T14:27:54.252Z,101594.66
2022-08-05T14:30:28.098Z,101599.06
2022-08-05T14:33:00.302Z,101590.38
2022-08-05T14:35:37.353Z,101597.19
2022-08-05T14:38:31.935Z,101586.13
2022-08-05T14:41:07.763Z,101583.00
2022-08-05T14:43:58.789Z,101592.81
2022-08-05T14:46:32.471Z,101593.34
2022-08-05T14:49:08.401Z,101590.94
2022-08-05T14:51:42.398Z,101598.97
2022-08-05T14:54:30.227Z,101602.63
2022-08-05T14:57:09.737Z,101608.41
2022-08-05T14:59:45.697Z,101610.66
2022-08-05T15:02:17.681Z,101615.91
2022-08-05T15:04:49.991Z,101618.56
2022-08-05T15:08:08.834Z,101614.78
2022-08-05T15:10:14.658Z,101606.13
2022-08-05T15:13:00.313Z,101610.81
2022-08-05T15:15:55.899Z,101605.09
2022-08-05T15:18:25.304Z,101598.13
2022-08-05T15:20:57.225Z,101591.38
2022-08-05T15:23:39.717Z,101584.63
2022-08-05T15:26:11.625Z,101597.31
2022-08-05T15:28:44.352Z,101595.16
2022-08-05T15:31:16.614Z,101603.31
2022-08-05T15:34:05.910Z,101601.72
2022-08-05T15:36:40.813Z,101611.66
2022-08-05T15:41:01.607Z,101660.34
2022-08-05T15:42:50.087Z,101667.22
2022-08-05T15:44:56.844Z,101680.34
2022-08-05T15:47:28.800Z,101673.19
2022-08-05T15:50:03.868Z,101670.09
2022-08-05T15:52:53.774Z,101677.81
2022-08-05T15:56:02.934Z,101673.88
2022-08-05T15:58:19.430Z,101683.81
2022-08-05T16:01:11.919Z,101681.38
2022-08-05T16:03:48.716Z,101687.31
2022-08-05T16:06:23.400Z,101686.47
2022-08-05T16:08:55.746Z,101683.06
2022-08-05T16:11:42.508Z,101680.47
2022-08-05T16:14:17.082Z,101689.78
2022-08-05T16:16:50.062Z,101696.69
2022-08-05T16:20:03.371Z,101690.84
2022-08-05T16:22:15.474Z,101696.53
2022-08-05T16:24:51.975Z,101703.78
2022-08-05T16:27:47.450Z,101702.13
2022-08-05T16:30:25.964Z,101713.56
2022-08-05T16:32:59.271Z,101710.44
2022-08-05T16:35:33.480Z,101704.72
2022-08-05T16:38:18.732Z,101710.59
2022-08-05T16:41:00.607Z,101727.44
2022-08-05T16:43:35.019Z,101712.44
2022-08-05T16:46:12.869Z,101726.56
2022-08-05T16:48:56.754Z,101723.97
2022-08-05T16:51:30.999Z,101723.97
2022-08-05T16:54:17.094Z,101728.97
2022-08-05T16:56:51.980Z,101736.69
2022-08-05T16:59:24.233Z,101741.81
2022-08-05T17:02:00.851Z,101740.59
2022-08-05T17:04:32.989Z,101736.38
2022-08-05T17:07:11.128Z,101744.41
2022-08-05T17:09:57.325Z,101748.16
2022-08-05T17:12:51.882Z,101742.34
2022-08-05T17:15:23.368Z,101741.22
2022-08-05T17:18:01.462Z,101742.88
2022-08-05T17:20:33.409Z,101749.69
2022-08-05T17:23:05.784Z,101749.91
2022-08-05T17:25:40.459Z,101770.63
2022-08-05T17:28:15.568Z,101765.72
2022-08-05T17:30:50.800Z,101765.13
2022-08-05T17:33:24.324Z,101773.34
2022-08-05T17:36:07.948Z,101781.44
2022-08-05T17:38:42.161Z,101789.06
2022-08-05T17:42:18.347Z,101799.22
2022-08-05T17:44:06.695Z,101800.50
2022-08-05T17:46:43.144Z,101797.34
2022-08-05T17:49:15.125Z,101805.59
2022-08-05T17:51:47.650Z,101809.44
2022-08-05T17:54:23.582Z,101802.63
2022-08-05T17:56:55.550Z,101809.88
2022-08-05T17:59:30.683Z,101813.66
2022-08-05T18:02:10.720Z,101818.41
2022-08-05T18:04:51.348Z,101814.44
2022-08-05T18:07:25.547Z,101834.50
2022-08-05T18:10:20.378Z,101831.97
2022-08-05T18:12:53.257Z,101829.00
2022-08-05T18:15:27.487Z,101837.94
2022-08-05T18:18:07.852Z,101850.63
2022-08-05T18:20:43.466Z,101839.31
2022-08-05T18:23:24.627Z,101850.28
2022-08-05T18:26:02.148Z,101853.06
2022-08-05T18:28:36.804Z,101846.13
2022-08-05T18:31:11.087Z,101845.72
2022-08-05T18:33:46.707Z,101857.97
2022-08-05T18:36:19.841Z,101857.97
2022-08-05T18:38:59.962Z,101863.94
2022-08-05T18:41:55.215Z,101873.44
2022-08-05T18:44:33.397Z,101868.16
2022-08-05T18:47:07.935Z,101864.78
2022-08-05T18:50:02.431Z,101872.00
2022-08-05T18:52:38.006Z,101872.66
2022-08-05T18:55:11.112Z,101878.81
2022-08-05T18:57:53.388Z,101882.81
2022-08-05T19:00:29.220Z,101896.97
2022-08-05T19:03:03.916Z,101897.44
2022-08-05T19:06:11.039Z,101896.19
2022-08-05T19:08:30.174Z,101898.09
2022-08-05T19:11:05.149Z,101908.44
2022-08-05T19:13:39.194Z,101908.44
2022-08-05T19:16:25.163Z,101916.00
2022-08-05T19:19:01.990Z,101916.00
2022-08-05T19:21:37.270Z,101924.66
2022-08-05T19:24:12.942Z,101928.03
2022-08-05T19:26:54.904Z,101927.41
2022-08-05T19:29:35.966Z,101933.09
2022-08-05T19:32:11.656Z,101944.06
2022-08-05T19:34:54.975Z,101945.97
2022-08-05T19:37:30.112Z,101948.94
2022-08-05T19:40:19.279Z,101954.41
2022-08-05T19:43:04.939Z,101946.38
2022-08-05T19:45:37.515Z,101959.88
2022-08-05T19:48:14.444Z,101964.50
2022-08-05T19:50:46.581Z,101969.56
2022-08-05T19:54:04.340Z,101967.88
2022-08-05T19:56:15.639Z,101969.56
2022-08-05T19:58:53.751Z,101974.22
2022-08-05T20:01:28.478Z,101981.38
2022-08-05T20:04:01.034Z,101983.72
2022-08-05T20:06:37.780Z,101985.81
2022-08-05T20:09:17.846Z,101986.28
2022-08-05T20:11:49.981Z,101990.28
2022-08-05T20:14:27.022Z,101990.28
2022-08-05T20:16:59.300Z,101986.47
2022-08-05T20:19:36.077Z,101994.72
2022-08-05T20:22:09.541Z,101995.75
2022-08-05T20:24:41.709Z,101993.22
2022-08-05T20:27:13.918Z,102003.38
2022-08-05T20:29:57.449Z,102005.47
2022-08-05T20:32:30.469Z,102008.41
2022-08-05T20:35:05.477Z,102010.75
2022-08-05T20:38:05.441Z,102016.00
2022-08-05T20:40:31.851Z,102018.53
2022-08-05T20:43:04.732Z,102021.94
2022-08-05T20:45:56.271Z,102022.97
2022-08-05T20:48:29.255Z,102032.69
2022-08-05T20:51:07.988Z,102030.78
2022-08-05T20:53:40.931Z,102043.00
2022-08-05T20:56:13.115Z,102027.84
2022-08-05T20:58:45.040Z,102041.34
2022-08-05T21:01:17.005Z,102037.97
2022-08-05T21:03:49.030Z,102034.38
2022-08-05T21:06:27.932Z,102033.53
2022-08-05T21:09:00.728Z,102043.03
2022-08-05T21:12:09.901Z,102055.25
2022-08-05T21:14:26.669Z,102053.97
2022-08-05T21:16:58.889Z,102048.94
2022-08-05T21:19:46.694Z,102058.59
2022-08-05T21:22:21.834Z,102066.22
2022-08-05T21:24:56.386Z,102060.72
2022-08-05T21:27:29.039Z,102073.38
2022-08-05T21:30:11.512Z,102068.75
2022-08-05T21:32:49.578Z,102066.63
2022-08-05T21:35:30.056Z,102068.50
2022-08-05T21:38:14.737Z,102067.66
2022-08-05T21:40:49.101Z,102074.19
2022-08-05T21:43:24.556Z,102073.78
2022-08-05T21:46:00.150Z,102071.66
2022-08-05T21:48:32.446Z,102080.94
2022-08-05T21:52:15.532Z,102079.66
2022-08-05T21:54:03.922Z,102076.91
2022-08-05T21:56:36.084Z,102081.34
2022-08-05T21:59:22.494Z,102087.69
2022-08-05T22:01:55.977Z,102072.06
2022-08-05T22:04:27.961Z,102075.00
2022-08-05T22:06:59.885Z,102079.63
2022-08-05T22:09:46.048Z,102075.00
2022-08-05T22:12:18.410Z,102075.00
2022-08-05T22:14:58.723Z,102081.34
2022-08-05T22:17:31.821Z,102083.63
2022-08-05T22:20:14.872Z,102086.81
2022-08-05T22:23:16.838Z,102090.59
2022-08-05T22:26:09.537Z,102096.06
2022-08-05T22:28:43.422Z,102094.38
2022-08-05T22:31:17.308Z,102099.41
2022-08-05T22:33:58.571Z,102104.88
2022-08-05T22:36:33.305Z,102100.69
2022-08-05T22:39:09.705Z,102099.16
2022-08-05T22:42:09.945Z,102100.22
2022-08-05T22:44:35.582Z,102104.00
2022-08-05T22:47:07.437Z,102104.38
2022-08-05T22:50:20.595Z,102111.56
2022-08-05T22:52:34.381Z,102110.53
2022-08-05T22:55:18.319Z,102107.78
2022-08-05T22:57:52.675Z,102114.31
2022-08-05T23:00:24.623Z,102115.34
2022-08-05T23:02:58.729Z,102116.81
2022-08-05T23:05:30.739Z,102116.19
2022-08-05T23:08:07.850Z,102118.69
2022-08-05T23:10:43.417Z,102119.97
2022-08-05T23:13:15.219Z,102117.63
2022-08-05T23:15:50.359Z,102122.84
2022-08-05T23:18:22.932Z,102126.84
2022-08-05T23:20:54.944Z,102130.44
2022-08-05T23:23:29.854Z,102131.25
2022-08-05T23:26:05.894Z,102132.91
2022-08-05T23:28:38.953Z,102129.50
2022-08-05T23:31:17.251Z,102132.41
2022-08-05T23:34:04.848Z,102141.19
2022-08-05T23:36:41.578Z,102146.03
2022-08-05T23:39:31.855Z,102151.06
2022-08-05T23:42:04.773Z,102153.34
2022-08-05T23:44:40.758Z,102161.75
2022-08-05T23:47:16.453Z,102158.19
2022-08-05T23:49:48.280Z,102158.81
2022-08-05T23:52:29.250Z,102167.66
2022-08-05T23:55:08.887Z,102161.34
2022-08-05T23:57:41.144Z,102166.81
